Time;durP1;ratioP1;P1;durP2;ratioP2;P2;SDS_P1;SDS_P2;PMS_P1;PMS_P2;Temp;Humidity;BMP_temperature;BMP_pressure;BME280_temperature;BME280_humidity;BME280_pressure;Samples;Min_cycle;Max_cycle;Signal;HPM_P1;HPM_P2
2021/06/23 00:01:28;;;;;;;6.25;0.60;;;;;;;13.28;45.72;101964.16;5065109;28;20040;-69
2021/06/23 00:03:53;;;;;;;7.70;1.40;;;;;;;13.21;45.61;101967.91;5063178;28;20056;-68
2021/06/23 00:06:19;;;;;;;6.43;0.40;;;;;;;12.85;46.75;101957.72;5065020;28;20037;-69
2021/06/23 00:08:44;;;;;;;4.32;0.75;;;;;;;12.88;46.78;101965.47;5065377;28;20036;-69
2021/06/23 00:11:10;;;;;;;5.65;0.60;;;;;;;12.72;47.47;101966.03;5064333;28;20029;-69
2021/06/23 00:13:36;;;;;;;7.53;0.40;;;;;;;12.66;47.88;101964.41;5065367;28;20721;-70
2021/06/23 00:16:05;;;;;;;5.53;0.73;;;;;;;12.58;48.38;101967.28;5046179;28;20063;-70
2021/06/23 00:18:31;;;;;;;6.57;0.50;;;;;;;12.50;49.11;101966.66;5065499;28;20028;-70
2021/06/23 00:20:57;;;;;;;9.90;1.02;;;;;;;12.76;48.38;101967.63;5064957;28;20027;-70
2021/06/23 00:23:22;;;;;;;7.18;1.00;;;;;;;12.74;48.46;101970.31;5064709;28;20400;-70
2021/06/23 00:25:48;;;;;;;8.80;0.77;;;;;;;12.63;49.04;101978.47;5063997;28;20071;-70
2021/06/23 00:28:13;;;;;;;4.55;0.90;;;;;;;12.72;48.90;101976.50;5065146;28;20032;-70
2021/06/23 00:30:39;;;;;;;10.15;1.00;;;;;;;12.62;49.02;101970.66;5045643;28;20036;-69
2021/06/23 00:33:16;;;;;;;4.22;0.95;;;;;;;12.76;48.68;101981.63;5082561;28;20032;-68
2021/06/23 00:35:45;;;;;;;9.60;0.75;;;;;;;12.75;48.74;101985.13;5084509;28;20489;-69
2021/06/23 00:38:12;;;;;;;4.75;0.93;;;;;;;12.78;48.78;101992.03;5050470;28;20028;-70
2021/06/23 00:40:40;;;;;;;4.55;0.77;;;;;;;12.72;48.89;101987.88;5050871;28;20148;-65
2021/06/23 00:43:07;;;;;;;6.97;1.45;;;;;;;12.33;50.02;101990.75;5047957;28;20086;-64
2021/06/23 00:45:33;;;;;;;6.15;1.08;;;;;;;11.97;51.75;101990.06;5049999;28;20041;-66
2021/06/23 00:47:59;;;;;;;6.72;0.98;;;;;;;11.97;51.69;101976.97;5046351;28;20040;-67
2021/06/23 00:50:27;;;;;;;3.40;0.45;;;;;;;12.12;51.47;101968.66;5046145;28;20516;-65
2021/06/23 00:53:23;;;;;;;10.15;1.25;;;;;;;12.01;51.32;101968.13;5041301;28;20064;-66
2021/06/23 00:55:53;;;;;;;5.25;1.20;;;;;;;12.17;51.24;101965.91;5033773;28;20035;-70
2021/06/23 00:58:20;;;;;;;7.03;0.85;;;;;;;12.17;51.20;101956.25;5046778;28;20074;-66
2021/06/23 01:00:51;;;;;;;3.42;0.50;;;;;;;11.97;51.68;101946.38;5045234;28;20409;-64
2021/06/23 01:03:17;;;;;;;3.92;0.60;;;;;;;11.97;51.78;101958.63;5044562;28;20598;-66
2021/06/23 01:05:49;;;;;;;5.90;0.50;;;;;;;12.21;51.50;101960.53;5044351;28;20103;-66
2021/06/23 01:08:21;;;;;;;8.80;1.17;;;;;;;12.22;50.98;101961.38;5045472;28;20075;-64
2021/06/23 01:10:47;;;;;;;5.10;1.35;;;;;;;12.21;51.25;101968.38;5044718;28;20119;-65
2021/06/23 01:13:25;;;;;;;3.47;0.90;;;;;;;12.42;51.06;101976.50;5063503;28;20450;-64
2021/06/23 01:15:54;;;;;;;7.03;1.63;;;;;;;12.33;51.28;101971.53;5052024;28;20033;-65
2021/06/23 01:18:20;;;;;;;9.05;1.40;;;;;;;12.18;51.69;101967.59;5036789;28;20041;-66
2021/06/23 01:20:49;;;;;;;7.38;1.95;;;;;;;12.39;51.97;101974.00;5063001;28;20106;-65
2021/06/23 01:23:15;;;;;;;5.63;1.50;;;;;;;12.43;51.57;101975.63;5028740;28;20020;-65
2021/06/23 01:25:42;;;;;;;5.90;1.73;;;;;;;12.49;51.17;101972.78;5043756;28;20186;-65
2021/06/23 01:28:08;;;;;;;11.48;2.22;;;;;;;12.38;51.21;101970.50;5032314;28;20036;-65
2021/06/23 01:30:45;;;;;;;8.02;2.55;;;;;;;12.31;51.81;101978.59;5045702;28;20036;-66
2021/06/23 01:33:24;;;;;;;12.02;2.45;;;;;;;12.42;51.60;101976.50;5062990;28;20021;-65
2021/06/23 01:35:52;;;;;;;7.57;1.30;;;;;;;12.56;51.32;101986.56;5059847;28;20036;-66
2021/06/23 01:38:20;;;;;;;6.00;1.27;;;;;;;12.58;51.17;101977.78;5063373;28;20094;-68
2021/06/23 01:40:46;;;;;;;8.05;1.20;;;;;;;12.62;50.91;101979.38;5061857;28;20051;-67
2021/06/23 01:43:13;;;;;;;6.93;1.10;;;;;;;12.65;50.38;101978.44;5063323;28;20029;-68
2021/06/23 01:45:39;;;;;;;7.47;1.13;;;;;;;12.57;50.61;101976.03;5061953;28;20160;-67
2021/06/23 01:48:06;;;;;;;6.65;1.65;;;;;;;12.58;50.52;101977.78;5043430;28;20409;-68
2021/06/23 01:50:33;;;;;;;8.95;0.93;;;;;;;12.58;50.37;101966.41;5044049;28;20560;-66
2021/06/23 01:53:01;;;;;;;6.20;1.60;;;;;;;12.61;50.88;101968.94;5044008;28;20512;-66
2021/06/23 01:55:30;;;;;;;9.23;1.48;;;;;;;12.45;50.64;101981.69;5062697;28;20028;-66
2021/06/23 01:58:06;;;;;;;9.75;1.30;;;;;;;12.46;51.21;101986.00;5060755;28;20107;-67
2021/06/23 02:01:05;;;;;;;6.88;1.50;;;;;;;12.56;51.04;101989.19;5061525;28;21026;-65
2021/06/23 02:03:46;;;;;;;13.52;1.13;;;;;;;12.55;50.84;101977.84;5020693;28;20036;-67
2021/06/23 02:06:40;;;;;;;15.60;1.52;;;;;;;12.67;50.85;101976.63;5045505;28;20028;-66
2021/06/23 02:09:35;;;;;;;4.22;1.25;;;;;;;12.82;50.04;101983.16;5043507;28;20032;-66
2021/06/23 02:12:25;;;;;;;11.55;1.75;;;;;;;12.70;50.35;101982.66;5061548;28;20424;-66
2021/06/23 02:14:57;;;;;;;14.88;1.38;;;;;;;12.70;50.35;101981.81;5044352;28;20107;-65
2021/06/23 02:17:30;;;;;;;5.50;0.68;;;;;;;12.78;50.19;101984.16;5060124;28;20519;-64
2021/06/23 02:20:11;;;;;;;9.57;1.37;;;;;;;12.76;49.97;101980.72;5043795;28;20737;-64
2021/06/23 02:22:38;;;;;;;3.78;0.77;;;;;;;12.73;50.07;101991.34;5060868;28;20267;-65
2021/06/23 02:25:14;;;;;;;10.65;0.93;;;;;;;12.63;50.09;101988.97;5062140;28;20520;-64
2021/06/23 02:28:04;;;;;;;8.18;0.63;;;;;;;12.72;50.45;101992.25;5047916;28;20044;-66
2021/06/23 02:30:30;;;;;;;9.50;0.90;;;;;;;12.76;49.77;101992.09;5043177;28;20059;-63
2021/06/23 02:32:59;;;;;;;13.57;1.30;;;;;;;12.77;50.07;101992.97;5061424;28;20029;-65
2021/06/23 02:35:37;;;;;;;7.35;1.63;;;;;;;12.75;49.85;102000.03;5041980;28;20039;-65
2021/06/23 02:38:10;;;;;;;7.32;1.25;;;;;;;12.86;49.70;102003.16;5043147;28;20397;-65
2021/06/23 02:40:40;;;;;;;6.97;1.38;;;;;;;12.88;49.53;101998.72;5061140;28;20131;-65
2021/06/23 02:43:07;;;;;;;15.95;1.50;;;;;;;12.71;49.86;101994.00;5053568;28;20119;-65
2021/06/23 02:45:32;;;;;;;7.97;1.48;;;;;;;12.80;49.69;101995.47;5060605;28;20159;-65
2021/06/23 02:47:58;;;;;;;9.10;1.15;;;;;;;12.76;49.34;101997.34;5047428;28;20687;-65
2021/06/23 02:50:55;;;;;;;10.80;1.20;;;;;;;12.74;49.31;101993.06;5060542;28;20466;-66
2021/06/23 02:53:25;;;;;;;7.67;0.90;;;;;;;12.75;49.30;101994.78;5062299;28;20408;-63
2021/06/23 02:55:51;;;;;;;4.78;1.00;;;;;;;12.68;49.33;101994.91;5061004;28;20355;-65
2021/06/23 02:58:19;;;;;;;11.00;1.13;;;;;;;12.64;49.63;101995.91;5042750;28;20119;-68
2021/06/23 03:00:45;;;;;;;9.25;1.38;;;;;;;12.73;49.42;102001.81;5042643;28;20032;-69
2021/06/23 03:03:11;;;;;;;5.35;1.00;;;;;;;12.75;49.55;102002.63;5042672;28;20403;-67
2021/06/23 03:05:37;;;;;;;7.22;1.33;;;;;;;12.72;49.79;102014.09;5041992;28;20021;-68
2021/06/23 03:08:06;;;;;;;9.23;1.65;;;;;;;12.66;49.70;102014.25;5061896;28;20425;-68
2021/06/23 03:10:40;;;;;;;5.65;1.02;;;;;;;12.80;49.87;102008.59;5060700;28;20419;-67
2021/06/23 03:13:06;;;;;;;9.82;1.30;;;;;;;12.78;49.65;102016.53;5061976;28;20025;-69
2021/06/23 03:15:50;;;;;;;9.40;0.80;;;;;;;12.92;49.20;102015.25;5060608;28;20074;-69
2021/06/23 03:18:23;;;;;;;3.50;1.13;;;;;;;12.94;49.14;102024.78;5044045;28;20044;-68
2021/06/23 03:20:50;;;;;;;6.70;1.52;;;;;;;12.81;49.25;102026.91;5061236;28;20413;-68
2021/06/23 03:23:17;;;;;;;3.90;0.88;;;;;;;12.85;49.62;102023.31;5061945;28;20890;-68
2021/06/23 03:25:43;;;;;;;13.55;1.02;;;;;;;12.89;49.14;102029.28;5041838;28;20040;-68
2021/06/23 03:28:09;;;;;;;10.18;1.33;;;;;;;12.92;48.93;102021.34;5061585;28;20059;-67
2021/06/23 03:30:38;;;;;;;13.88;0.90;;;;;;;12.89;49.12;102019.69;5042752;28;20085;-67
2021/06/23 03:33:06;;;;;;;5.80;1.05;;;;;;;12.90;49.37;102023.16;5060098;28;20025;-70
2021/06/23 03:35:50;;;;;;;6.85;1.15;;;;;;;12.91;49.74;102024.84;5042134;28;20123;-67
2021/06/23 03:38:16;;;;;;;6.75;1.10;;;;;;;12.89;49.74;102040.66;5046513;28;20088;-68
2021/06/23 03:40:42;;;;;;;8.25;1.25;;;;;;;12.87;49.64;102038.97;5060820;28;20104;-67
2021/06/23 03:43:08;;;;;;;5.25;0.80;;;;;;;12.82;49.68;102040.88;5042941;28;20096;-68
2021/06/23 03:45:34;;;;;;;10.05;1.10;;;;;;;12.92;49.61;102041.47;5042129;28;20504;-67
2021/06/23 03:48:00;;;;;;;11.85;1.25;;;;;;;12.83;49.46;102045.25;5063449;22;20081;-66
2021/06/23 03:50:29;;;;;;;6.43;0.88;;;;;;;12.94;49.55;102043.16;5025630;28;20096;-65
2021/06/23 03:52:55;;;;;;;7.63;0.52;;;;;;;13.02;49.36;102045.50;5043862;28;20493;-68
2021/06/23 03:55:25;;;;;;;5.38;1.33;;;;;;;13.01;49.10;102052.53;5045379;28;20037;-67
2021/06/23 03:57:53;;;;;;;8.15;1.20;;;;;;;12.92;49.22;102059.84;5016909;28;20052;-68
2021/06/23 04:00:21;;;;;;;7.57;1.13;;;;;;;12.92;49.11;102051.97;5019421;28;20081;-67
2021/06/23 04:02:47;;;;;;;6.03;1.00;;;;;;;12.96;49.41;102062.34;5020633;28;20162;-67
2021/06/23 04:05:17;;;;;;;11.35;1.58;;;;;;;13.01;49.23;102055.16;5022210;28;20058;-67
2021/06/23 04:07:44;;;;;;;6.13;0.80;;;;;;;12.87;48.99;102062.59;5020943;28;20065;-65
2021/06/23 04:10:12;;;;;;;4.00;1.40;;;;;;;12.93;49.90;102067.66;5036140;28;20033;-66
2021/06/23 04:12:37;;;;;;;4.07;0.98;;;;;;;12.84;49.78;102060.06;5025703;28;20033;-67
2021/06/23 04:15:08;;;;;;;5.20;0.85;;;;;;;12.96;49.91;102061.44;5037675;28;20036;-64
2021/06/23 04:17:34;;;;;;;7.78;1.13;;;;;;;13.04;49.51;102070.81;5017882;28;20040;-64
2021/06/23 04:20:04;;;;;;;10.18;1.88;;;;;;;12.79;49.45;102070.72;5024253;28;20025;-65
2021/06/23 04:22:48;;;;;;;10.00;2.97;;;;;;;12.66;49.92;102064.94;5022174;28;20067;-67
2021/06/23 04:25:14;;;;;;;4.57;1.08;;;;;;;12.80;49.84;102066.31;5037929;28;20026;-67
2021/06/23 04:27:40;;;;;;;9.82;1.23;;;;;;;12.72;50.06;102070.94;5036699;28;20119;-67
2021/06/23 04:30:09;;;;;;;7.40;1.08;;;;;;;12.68;50.19;102067.50;5037078;28;20074;-65
2021/06/23 04:32:37;;;;;;;9.07;1.27;;;;;;;12.74;50.31;102077.00;5026277;28;20033;-65
2021/06/23 04:35:15;;;;;;;9.95;1.17;;;;;;;12.62;50.60;102075.56;5040300;28;20111;-65
2021/06/23 04:37:44;;;;;;;7.30;1.00;;;;;;;12.63;50.18;102075.53;5039538;28;20029;-66
2021/06/23 04:40:13;;;;;;;5.07;0.60;;;;;;;12.84;50.25;102074.03;5039922;28;20027;-66
2021/06/23 04:42:40;;;;;;;3.83;1.67;;;;;;;12.76;49.95;102075.19;5019588;28;20036;-67
2021/06/23 04:45:11;;;;;;;3.70;0.90;;;;;;;12.59;50.19;102084.38;5018812;28;20438;-68
2021/06/23 04:47:44;;;;;;;11.98;2.08;;;;;;;12.64;50.03;102082.47;5022616;28;20028;-68
2021/06/23 04:50:11;;;;;;;6.45;1.13;;;;;;;12.66;49.28;102083.28;5026996;28;20116;-68
2021/06/23 04:52:53;;;;;;;15.93;1.50;;;;;;;12.53;49.33;102092.41;5023369;28;20029;-68
2021/06/23 04:55:19;;;;;;;7.40;1.17;;;;;;;12.46;49.34;102094.34;5024720;28;20040;-68
2021/06/23 04:57:49;;;;;;;4.90;1.48;;;;;;;12.51;49.67;102096.84;5011684;28;20040;-68
2021/06/23 05:00:15;;;;;;;8.20;1.17;;;;;;;12.53;49.45;102100.28;5017606;28;20028;-67
2021/06/23 05:02:40;;;;;;;8.45;1.25;;;;;;;12.39;49.58;102097.22;5019971;28;20052;-68
2021/06/23 05:05:06;;;;;;;14.43;1.75;;;;;;;12.14;50.73;102097.03;5037733;28;20152;-65
2021/06/23 05:07:32;;;;;;;8.48;2.15;;;;;;;12.27;50.74;102099.28;5037423;28;20094;-65
2021/06/23 05:09:57;;;;;;;13.10;1.20;;;;;;;12.04;51.60;102096.41;5034557;28;20040;-64
2021/06/23 05:12:27;;;;;;;8.68;1.63;;;;;;;11.77;52.80;102093.59;5022092;28;20079;-64
2021/06/23 05:14:52;;;;;;;6.53;1.58;;;;;;;11.75;53.63;102100.59;5038299;28;20029;-65
2021/06/23 05:17:18;;;;;;;6.22;1.55;;;;;;;11.98;53.14;102101.84;5032412;28;20043;-65
2021/06/23 05:19:43;;;;;;;5.72;1.20;;;;;;;11.93;53.72;102107.16;5030222;28;20524;-64
2021/06/23 05:22:10;;;;;;;8.45;1.30;;;;;;;11.75;54.28;102105.84;5037278;28;20440;-65
2021/06/23 05:24:38;;;;;;;11.90;2.13;;;;;;;11.87;54.26;102109.97;5035829;28;20070;-69
2021/06/23 05:27:04;;;;;;;7.90;2.03;;;;;;;12.05;53.91;102113.88;5037429;28;20365;-65
2021/06/23 05:29:30;;;;;;;3.45;1.23;;;;;;;11.91;53.66;102110.72;5016469;28;20104;-65
2021/06/23 05:31:55;;;;;;;6.28;1.20;;;;;;;11.96;53.93;102108.88;5029846;28;20036;-64
2021/06/23 05:34:20;;;;;;;6.65;1.40;;;;;;;11.82;54.50;102111.81;5027431;28;20022;-67
2021/06/23 05:36:46;;;;;;;7.05;1.48;;;;;;;11.88;54.27;102109.06;5019282;28;20448;-67
2021/06/23 05:39:11;;;;;;;8.75;1.80;;;;;;;12.14;54.18;102107.53;5035132;28;20519;-67
2021/06/23 05:41:37;;;;;;;7.03;1.58;;;;;;;12.19;53.27;102126.59;5035763;28;20474;-65
2021/06/23 05:44:03;;;;;;;6.97;1.00;;;;;;;12.07;53.71;102125.16;5035721;28;20129;-66
2021/06/23 05:46:30;;;;;;;11.27;2.05;;;;;;;12.44;53.22;102121.53;5034435;28;20045;-65
2021/06/23 05:48:56;;;;;;;6.32;1.70;;;;;;;12.60;52.11;102112.34;5037311;28;20470;-65
2021/06/23 05:51:21;;;;;;;9.43;1.60;;;;;;;12.63;53.12;102109.63;5034601;28;20035;-65
2021/06/23 05:53:47;;;;;;;11.13;2.20;;;;;;;12.58;52.65;102111.53;5018046;28;20112;-67
2021/06/23 05:56:14;;;;;;;12.10;1.90;;;;;;;12.89;52.44;102113.25;5039314;28;20097;-67
2021/06/23 05:58:40;;;;;;;10.38;1.20;;;;;;;12.77;52.24;102109.25;5035254;28;20024;-66
2021/06/23 06:01:06;;;;;;;3.85;1.20;;;;;;;12.83;51.99;102119.56;5033815;28;20030;-67
2021/06/23 06:03:33;;;;;;;11.20;3.25;;;;;;;12.93;52.50;102121.91;5033809;28;20064;-67
2021/06/23 06:05:59;;;;;;;6.75;1.00;;;;;;;13.10;50.79;102122.25;5033862;28;20071;-66
2021/06/23 06:08:25;;;;;;;17.75;1.52;;;;;;;12.68;51.35;102120.81;5032169;28;20037;-67
2021/06/23 06:10:50;;;;;;;5.53;1.02;;;;;;;13.15;50.38;102116.88;5035618;28;20032;-68
2021/06/23 06:13:16;;;;;;;2.85;1.13;;;;;;;13.41;49.75;102116.91;5036087;28;20060;-65
2021/06/23 06:15:42;;;;;;;5.53;0.90;;;;;;;13.90;48.31;102117.94;5023173;28;20124;-68
2021/06/23 06:18:08;;;;;;;8.82;1.27;;;;;;;13.98;47.63;102116.78;5033235;28;20036;-67
2021/06/23 06:20:34;;;;;;;5.68;1.02;;;;;;;14.33;48.24;102119.03;5032026;28;20512;-67
2021/06/23 06:23:00;;;;;;;9.65;1.27;;;;;;;14.58;47.03;102123.44;5037315;28;20096;-69
2021/06/23 06:25:26;;;;;;;5.28;1.15;;;;;;;14.72;46.38;102121.16;5038892;28;20316;-66
2021/06/23 06:27:52;;;;;;;9.57;1.77;;;;;;;14.91;45.09;102113.41;5028851;28;20029;-69
2021/06/23 06:30:18;;;;;;;6.90;0.95;;;;;;;14.53;46.07;102114.84;5033388;28;20819;-68
2021/06/23 06:32:43;;;;;;;7.13;0.80;;;;;;;14.62;44.66;102119.78;5025216;28;20029;-67
2021/06/23 06:35:09;;;;;;;7.28;0.50;;;;;;;14.44;45.52;102123.94;5033118;28;20022;-67
2021/06/23 06:37:35;;;;;;;6.35;0.90;;;;;;;14.61;45.24;102123.28;5034324;28;20107;-66
2021/06/23 06:40:00;;;;;;;3.42;0.50;;;;;;;14.30;44.95;102127.03;5034637;28;20051;-67
2021/06/23 06:42:26;;;;;;;9.18;1.23;;;;;;;14.56;44.24;102123.47;5035454;28;20079;-67
2021/06/23 06:44:52;;;;;;;6.20;0.65;;;;;;;14.49;44.74;102115.88;5034195;28;20077;-66
2021/06/23 06:47:17;;;;;;;14.98;0.80;;;;;;;15.02;43.70;102107.72;5034404;28;20039;-64
2021/06/23 06:49:43;;;;;;;8.65;0.75;;;;;;;15.58;42.70;102109.84;5031606;28;20521;-66
2021/06/23 06:52:11;;;;;;;4.30;0.50;;;;;;;15.49;42.37;102112.88;5034298;28;20060;-64
2021/06/23 06:54:37;;;;;;;9.80;1.08;;;;;;;15.47;42.71;102117.34;5030874;28;20102;-66
2021/06/23 06:57:03;;;;;;;4.85;0.70;;;;;;;14.98;43.00;102112.22;5020828;28;20034;-66
2021/06/23 06:59:30;;;;;;;3.95;0.80;;;;;;;14.97;42.76;102109.69;5033363;28;20044;-67
2021/06/23 07:01:56;;;;;;;7.95;0.85;;;;;;;15.41;42.36;102109.69;5032589;28;20110;-65
2021/06/23 07:04:22;;;;;;;5.57;1.48;;;;;;;14.89;43.81;102117.00;5021358;28;20114;-66
2021/06/23 07:06:49;;;;;;;7.57;1.17;;;;;;;14.84;44.28;102125.09;5033592;28;20029;-65
2021/06/23 07:09:15;;;;;;;8.68;2.40;;;;;;;15.18;43.58;102119.34;5020515;28;20029;-66
2021/06/23 07:11:43;;;;;;;7.72;1.45;;;;;;;14.75;44.40;102110.50;5012396;28;20025;-66
2021/06/23 07:14:09;;;;;;;8.77;0.70;;;;;;;14.71;43.73;102111.53;5014722;28;20108;-66
2021/06/23 07:16:34;;;;;;;4.63;1.40;;;;;;;14.91;43.02;102112.53;5034283;28;20116;-65
2021/06/23 07:19:00;;;;;;;13.20;1.90;;;;;;;15.02;42.94;102120.88;5015052;28;20083;-65
2021/06/23 07:21:26;;;;;;;3.90;0.63;;;;;;;15.25;42.39;102124.41;5040819;28;20041;-65
2021/06/23 07:23:54;;;;;;;2.72;0.63;;;;;;;15.48;41.92;102116.44;5030879;28;20040;-66
2021/06/23 07:26:20;;;;;;;6.35;0.60;;;;;;;15.65;41.53;102118.34;5031586;28;20036;-66
2021/06/23 07:28:55;;;;;;;6.50;0.57;;;;;;;16.21;40.22;102122.16;5031851;28;20155;-68
2021/06/23 07:34:13;;;;;;;6.20;1.08;;;;;;;15.35;41.49;102128.41;5034459;28;20413;-65
2021/06/23 07:36:49;;;;;;;5.82;0.70;;;;;;;15.39;42.62;102127.34;5034622;28;20033;-65
2021/06/23 07:39:18;;;;;;;8.68;0.63;;;;;;;15.95;41.29;102124.13;5004514;28;20056;-65
2021/06/23 07:41:48;;;;;;;3.92;1.10;;;;;;;15.80;40.58;102128.25;5033713;28;20121;-65
2021/06/23 07:44:18;;;;;;;12.30;0.75;;;;;;;15.70;40.78;102123.44;5038736;28;20040;-66
2021/06/23 07:46:50;;;;;;;10.32;0.70;;;;;;;15.61;41.37;102121.19;5036068;28;20384;-66
2021/06/23 07:49:16;;;;;;;3.20;0.38;;;;;;;15.23;42.14;102126.25;5037041;28;20033;-66
2021/06/23 07:51:51;;;;;;;6.53;0.63;;;;;;;15.24;42.32;102127.94;5038453;28;20116;-64
2021/06/23 07:54:22;;;;;;;9.38;0.60;;;;;;;14.89;42.33;102130.16;5030534;28;20021;-65
2021/06/23 08:02:47;;;;;;;5.53;0.70;;;;;;;14.95;41.62;102133.41;5009377;28;20049;-65
2021/06/23 08:12:55;;;;;;;7.78;0.55;;;;;;;15.45;40.53;102134.16;5037518;28;20107;-65
2021/06/23 08:15:32;;;;;;;5.50;1.15;;;;;;;15.62;40.07;102126.41;5034733;28;20029;-66
2021/06/23 08:17:58;;;;;;;4.07;0.52;;;;;;;15.63;40.16;102124.63;5027272;28;20075;-65
2021/06/23 08:20:25;;;;;;;14.77;1.17;;;;;;;15.86;39.92;102137.66;5029582;28;20068;-66
2021/06/23 08:22:51;;;;;;;5.95;0.63;;;;;;;16.15;39.52;102143.50;5036101;28;20049;-65
2021/06/23 08:25:16;;;;;;;4.85;0.40;;;;;;;15.51;40.23;102147.06;5023083;28;20040;-66
2021/06/23 08:27:43;;;;;;;15.35;1.42;;;;;;;15.53;40.49;102150.50;5026703;28;20438;-66
2021/06/23 08:30:10;;;;;;;7.35;0.75;;;;;;;15.14;40.80;102154.63;5037574;28;20029;-67
2021/06/23 08:32:38;;;;;;;3.20;0.57;;;;;;;15.18;41.00;102161.47;5035838;28;20462;-66
2021/06/23 08:35:07;;;;;;;3.80;1.08;;;;;;;15.19;41.30;102164.97;5026428;28;20044;-66
2021/06/23 08:37:33;;;;;;;6.68;1.38;;;;;;;14.85;41.52;102158.38;5036388;28;20087;-65
2021/06/23 08:39:58;;;;;;;4.20;0.57;;;;;;;14.84;41.54;102167.19;5022930;28;20437;-65
2021/06/23 08:42:25;;;;;;;9.13;0.93;;;;;;;15.10;41.42;102166.22;5038940;28;20070;-67
2021/06/23 08:44:51;;;;;;;4.35;0.88;;;;;;;14.86;41.70;102167.16;5036320;28;20108;-67
2021/06/23 08:47:16;;;;;;;16.70;1.27;;;;;;;15.07;41.54;102168.09;5033433;28;20128;-67
2021/06/23 08:49:43;;;;;;;6.57;1.23;;;;;;;15.20;41.09;102166.69;5037437;28;20036;-66
2021/06/23 08:52:10;;;;;;;10.82;1.02;;;;;;;15.11;40.88;102178.44;5035650;28;20026;-66
2021/06/23 08:54:36;;;;;;;7.03;0.65;;;;;;;15.01;40.48;102176.22;5034136;28;20034;-63
2021/06/23 08:57:03;;;;;;;5.43;0.50;;;;;;;15.12;40.44;102176.66;5034265;28;20029;-66
2021/06/23 08:59:31;;;;;;;4.30;0.68;;;;;;;14.58;41.40;102183.09;5020342;28;20036;-65
2021/06/23 09:01:56;;;;;;;4.68;0.80;;;;;;;14.82;40.96;102187.44;5037090;28;20409;-65
2021/06/23 09:04:24;;;;;;;6.68;2.15;;;;;;;14.65;41.95;102190.69;5032748;28;20037;-66
2021/06/23 09:06:53;;;;;;;8.43;1.13;;;;;;;14.77;40.84;102177.09;5020478;28;20095;-68
2021/06/23 09:09:36;;;;;;;7.40;1.27;;;;;;;14.85;41.34;102189.09;5024819;28;20045;-64
2021/06/23 09:12:03;;;;;;;6.13;0.80;;;;;;;14.92;40.97;102180.91;5020947;28;20064;-66
2021/06/23 09:14:31;;;;;;;5.15;0.57;;;;;;;14.86;41.02;102188.22;5039143;28;20067;-66
2021/06/23 09:17:14;;;;;;;4.82;0.68;;;;;;;14.56;41.17;102183.97;5037700;28;20205;-66
2021/06/23 09:19:44;;;;;;;11.20;0.80;;;;;;;14.76;41.06;102185.88;5037675;28;20505;-65
2021/06/23 09:22:36;;;;;;;7.00;1.50;;;;;;;14.83;40.72;102191.78;5035529;28;20043;-65
2021/06/23 09:25:23;;;;;;;6.00;1.83;;;;;;;15.01;40.22;102186.75;5036782;28;20036;-66
2021/06/23 09:27:51;;;;;;;8.57;0.90;;;;;;;15.07;40.26;102187.38;5037623;28;20481;-66
2021/06/23 09:30:25;;;;;;;6.10;0.90;;;;;;;14.86;41.03;102186.44;5037448;28;20060;-66
2021/06/23 09:33:08;;;;;;;31.23;6.05;;;;;;;15.09;40.61;102182.91;5038676;28;20028;-64
2021/06/23 09:35:34;;;;;;;25.02;4.13;;;;;;;14.87;41.46;102185.50;5038471;28;20160;-67
2021/06/23 09:38:00;;;;;;;7.47;1.58;;;;;;;15.00;40.64;102182.41;5038326;28;20032;-66
2021/06/23 09:40:29;;;;;;;2.72;0.73;;;;;;;15.18;39.95;102185.19;5020109;28;20037;-66
2021/06/23 09:43:00;;;;;;;4.82;1.05;;;;;;;15.28;40.14;102182.22;5033870;28;20059;-65
2021/06/23 09:45:30;;;;;;;10.10;2.08;;;;;;;15.20;40.78;102189.56;5038261;28;20391;-66
2021/06/23 09:48:01;;;;;;;8.52;2.15;;;;;;;15.35;39.84;102178.44;5036872;28;20037;-66
2021/06/23 09:50:28;;;;;;;3.25;0.65;;;;;;;14.98;39.65;102185.09;5001228;28;20065;-64
2021/06/23 09:53:03;;;;;;;7.28;0.50;;;;;;;15.09;39.68;102180.28;5035251;28;20034;-66
2021/06/23 09:55:44;;;;;;;9.90;1.05;;;;;;;15.42;39.72;102179.91;5033245;28;20489;-65
2021/06/23 09:58:20;;;;;;;8.50;0.88;;;;;;;15.24;39.77;102177.97;5035464;28;20037;-65
2021/06/23 10:01:11;;;;;;;9.73;1.00;;;;;;;15.83;39.69;102177.34;5034061;28;20095;-64
2021/06/23 10:03:57;;;;;;;5.80;0.53;;;;;;;15.46;38.93;102181.50;5037735;28;20025;-66
2021/06/23 10:06:28;;;;;;;7.10;0.47;;;;;;;15.06;39.75;102185.66;5042741;28;20044;-65
2021/06/23 10:09:22;;;;;;;8.38;0.70;;;;;;;15.35;39.41;102189.84;5035077;28;20120;-67
2021/06/23 10:11:51;;;;;;;8.63;1.00;;;;;;;15.84;38.62;102196.66;5021738;28;20045;-67
2021/06/23 10:14:17;;;;;;;7.50;0.98;;;;;;;15.61;39.12;102192.34;5035465;28;20084;-66
2021/06/23 10:16:43;;;;;;;9.95;1.10;;;;;;;15.81;38.19;102200.28;5033597;28;20510;-67
2021/06/23 10:19:09;;;;;;;257.30;33.30;;;;;;;15.99;38.70;102190.75;5034287;28;20041;-66
2021/06/23 10:21:36;;;;;;;5.82;0.85;;;;;;;16.15;38.17;102191.00;5034372;28;20490;-66
2021/06/23 10:24:05;;;;;;;4.13;0.70;;;;;;;15.96;38.00;102196.16;5038924;28;20036;-66
2021/06/23 10:26:31;;;;;;;3.10;0.93;;;;;;;15.92;37.72;102191.94;5033396;28;20493;-66
2021/06/23 10:28:58;;;;;;;5.45;0.82;;;;;;;16.07;38.13;102193.97;5035363;28;20528;-67
2021/06/23 10:31:26;;;;;;;5.80;1.33;;;;;;;16.12;38.54;102191.13;5015601;28;20486;-66
2021/06/23 10:33:53;;;;;;;6.38;0.88;;;;;;;16.14;38.59;102199.84;5035291;28;20512;-67
2021/06/23 10:36:22;;;;;;;5.90;0.90;;;;;;;16.17;38.21;102200.53;5012954;28;20053;-66
2021/06/23 10:38:49;;;;;;;7.70;0.77;;;;;;;16.18;38.18;102209.34;5010003;28;20042;-67
2021/06/23 10:41:16;;;;;;;4.18;0.65;;;;;;;15.75;38.85;102209.31;5016794;28;20030;-66
2021/06/23 10:43:43;;;;;;;8.27;0.63;;;;;;;15.79;39.20;102207.41;5014214;28;20068;-65
2021/06/23 10:46:11;;;;;;;10.02;1.27;;;;;;;16.03;38.89;102208.19;5013639;28;20136;-66
2021/06/23 10:48:57;;;;;;;9.75;0.93;;;;;;;16.14;38.78;102205.97;5013126;28;20103;-66
2021/06/23 10:51:27;;;;;;;2.38;0.82;;;;;;;15.98;38.52;102202.25;5017196;28;20061;-67
2021/06/23 10:53:53;;;;;;;6.55;0.57;;;;;;;16.07;38.12;102201.03;5014659;28;20026;-66
2021/06/23 10:56:41;;;;;;;4.97;0.60;;;;;;;16.29;38.63;102207.09;5012805;28;20053;-66
2021/06/23 10:59:36;;;;;;;9.55;0.75;;;;;;;16.17;37.87;102207.59;5019625;28;20030;-66
2021/06/23 11:02:15;;;;;;;4.88;0.73;;;;;;;16.32;38.08;102204.31;5012517;28;20057;-66
2021/06/23 11:05:02;;;;;;;8.80;0.77;;;;;;;16.25;38.28;102207.28;5011080;28;20061;-65
2021/06/23 11:07:38;;;;;;;6.05;1.00;;;;;;;15.95;39.05;102204.97;5010467;28;20610;-65
2021/06/23 11:10:13;;;;;;;6.93;0.90;;;;;;;16.11;38.59;102218.44;5011720;28;20037;-67
2021/06/23 11:12:47;;;;;;;7.93;1.27;;;;;;;16.30;38.53;102218.50;5015303;28;20037;-66
2021/06/23 11:15:38;;;;;;;7.50;1.30;;;;;;;16.10;39.36;102214.06;5014352;28;20053;-64
2021/06/23 11:18:31;;;;;;;11.05;1.80;;;;;;;16.03;39.01;102213.47;5016434;28;20037;-66
2021/06/23 11:21:17;;;;;;;3.78;0.90;;;;;;;15.71;39.11;102217.41;5029503;28;20150;-65
2021/06/23 11:23:51;;;;;;;2.83;0.82;;;;;;;16.29;38.96;102208.88;5015327;28;20394;-67
2021/06/23 11:26:21;;;;;;;7.18;0.90;;;;;;;16.51;38.91;102221.97;5012311;28;20052;-65
2021/06/23 11:28:51;;;;;;;12.18;1.20;;;;;;;16.57;38.37;102219.91;5012323;28;20124;-64
2021/06/23 11:31:17;;;;;;;5.53;0.68;;;;;;;16.88;37.73;102212.47;5016802;28;20037;-65
2021/06/23 11:33:46;;;;;;;5.38;0.88;;;;;;;16.95;37.22;102203.31;5016448;28;20478;-66
2021/06/23 11:36:16;;;;;;;6.32;0.80;;;;;;;17.47;36.11;102214.09;5014741;28;20029;-66
2021/06/23 11:38:42;;;;;;;6.25;0.93;;;;;;;17.38;36.33;102202.16;5013148;28;20037;-67
2021/06/23 11:41:09;;;;;;;5.13;1.10;;;;;;;17.91;35.87;102208.41;5015449;28;20117;-65
2021/06/23 11:43:35;;;;;;;4.35;1.05;;;;;;;18.19;36.27;102199.97;5016003;28;20037;-64
2021/06/23 11:46:01;;;;;;;10.52;0.70;;;;;;;17.82;35.78;102207.09;5013264;28;20104;-64
2021/06/23 11:48:27;;;;;;;8.75;1.23;;;;;;;18.16;35.69;102207.16;5011363;28;20041;-65
2021/06/23 11:50:54;;;;;;;7.43;0.77;;;;;;;18.02;34.96;102203.44;5015602;28;20330;-65
2021/06/23 11:53:21;;;;;;;9.85;1.25;;;;;;;18.28;35.38;102209.22;5014957;28;20038;-66